Time;durP1;ratioP1;P1;durP2;ratioP2;P2;SDS_P1;SDS_P2;PMS_P1;PMS_P2;Temp;Humidity;BMP_temperature;BMP_pressure;BME280_temperature;BME280_humidity;BME280_pressure;Samples;Min_cycle;Max_cycle;Signal;HPM_P1;HPM_P2
2022/05/05 00:00:48;;;;;;;5.43;4.75;;;20.50;73.80;;;;;;6339374;22;20049;-83
2022/05/05 00:03:13;;;;;;;6.05;4.60;;;20.50;73.90;;;;;;6339474;22;20010;-82
2022/05/05 00:05:39;;;;;;;6.57;5.38;;;20.50;74.10;;;;;;6340111;22;20037;-81
2022/05/05 00:08:05;;;;;;;5.70;5.10;;;20.50;74.10;;;;;;6339902;22;19995;-82
2022/05/05 00:15:59;;;;;;;6.20;5.60;;;20.40;74.70;;;;;;6340370;22;20112;-81
2022/05/05 00:18:24;;;;;;;6.50;5.90;;;20.30;75.00;;;;;;6339155;22;20093;-82
2022/05/05 00:20:50;;;;;;;6.38;5.78;;;20.30;75.00;;;;;;6340748;22;20435;-82
2022/05/05 00:23:16;;;;;;;6.18;5.50;;;20.30;75.00;;;;;;6339499;22;20027;-81
2022/05/05 00:25:42;;;;;;;5.80;5.13;;;20.30;75.10;;;;;;6340403;22;20402;-82
2022/05/05 00:28:07;;;;;;;9.07;6.80;;;20.30;75.40;;;;;;6339800;22;19999;-81
2022/05/05 00:30:33;;;;;;;7.00;5.47;;;20.20;76.60;;;;;;6312351;22;20060;-83
2022/05/05 00:32:59;;;;;;;7.05;5.82;;;20.20;75.70;;;;;;6339110;22;20298;-83
2022/05/05 00:35:24;;;;;;;6.68;5.72;;;20.20;75.80;;;;;;6338925;22;20348;-82
2022/05/05 00:37:50;;;;;;;6.78;6.07;;;20.20;76.10;;;;;;6339060;22;20428;-81
2022/05/05 00:40:16;;;;;;;6.43;5.82;;;20.20;76.20;;;;;;6339699;22;20425;-82
2022/05/05 00:42:42;;;;;;;6.18;5.57;;;20.20;76.70;;;;;;6338634;22;20403;-82
2022/05/05 00:45:08;;;;;;;10.00;6.93;;;20.20;76.70;;;;;;6339261;22;19999;-82
2022/05/05 00:47:33;;;;;;;7.63;6.93;;;20.10;77.70;;;;;;6338929;22;20076;-82
2022/05/05 00:49:59;;;;;;;6.38;5.72;;;20.10;78.10;;;;;;6340099;22;20006;-82
2022/05/05 00:52:26;;;;;;;7.97;6.82;;;20.00;77.50;;;;;;6339577;22;20024;-82
2022/05/05 00:54:54;;;;;;;7.70;6.97;;;19.90;78.00;;;;;;6312164;22;20006;-83
2022/05/05 00:57:20;;;;;;;8.48;6.00;;;19.90;77.40;;;;;;6338752;22;20007;-82
2022/05/05 00:59:45;;;;;;;9.43;8.23;;;19.80;77.50;;;;;;6338655;22;20416;-81
2022/05/05 01:02:12;;;;;;;8.30;7.45;;;19.80;78.20;;;;;;6339353;22;20040;-82
2022/05/05 01:04:38;;;;;;;10.85;7.57;;;19.70;77.70;;;;;;6339642;22;20017;-81
2022/05/05 01:07:04;;;;;;;10.10;7.78;;;19.70;77.10;;;;;;6337376;22;20067;-81
2022/05/05 01:09:32;;;;;;;11.10;10.00;;;19.60;76.90;;;;;;6312025;22;20003;-82
2022/05/05 01:11:57;;;;;;;10.55;9.43;;;19.60;77.00;;;;;;6311569;22;20052;-83
2022/05/05 01:14:23;;;;;;;8.43;7.63;;;19.60;76.60;;;;;;6339617;22;20591;-82
2022/05/05 01:16:49;;;;;;;8.57;7.60;;;19.60;76.40;;;;;;6339485;22;20067;-83
2022/05/05 01:19:14;;;;;;;8.45;7.55;;;19.50;76.10;;;;;;6338978;22;20006;-83
2022/05/05 01:21:40;;;;;;;9.15;7.95;;;19.50;75.90;;;;;;6311191;22;20026;-82
2022/05/05 01:24:06;;;;;;;9.82;7.35;;;19.40;76.10;;;;;;6339513;22;20005;-83
2022/05/05 01:29:16;;;;;;;7.97;7.13;;;19.40;76.70;;;;;;6338859;22;20038;-83
2022/05/05 01:31:44;;;;;;;7.97;7.00;;;19.40;76.20;;;;;;6339013;22;20321;-83
2022/05/05 01:34:10;;;;;;;8.77;7.88;;;19.40;76.10;;;;;;6339973;22;20484;-82
2022/05/05 01:36:36;;;;;;;7.63;6.85;;;19.40;76.20;;;;;;6338913;22;20074;-82
2022/05/05 01:39:02;;;;;;;8.35;7.00;;;19.30;76.20;;;;;;6338419;22;20029;-83
2022/05/05 01:41:27;;;;;;;7.35;6.63;;;19.30;76.00;;;;;;6338847;22;20094;-82
2022/05/05 01:43:53;;;;;;;7.43;6.72;;;19.30;76.20;;;;;;6338509;22;19999;-82
2022/05/05 01:46:19;;;;;;;7.38;6.68;;;19.30;76.10;;;;;;6339441;22;19995;-82
2022/05/05 01:48:44;;;;;;;7.28;6.40;;;19.30;76.20;;;;;;6311475;22;20559;-82
2022/05/05 01:51:10;;;;;;;10.55;8.50;;;19.40;76.20;;;;;;6339239;22;20294;-82
2022/05/05 01:53:36;;;;;;;12.77;10.73;;;19.30;77.10;;;;;;6339294;22;20397;-82
2022/05/05 01:56:12;;;;;;;7.18;6.47;;;19.10;77.70;;;;;;6311669;22;20081;-82
2022/05/05 01:58:39;;;;;;;8.70;7.88;;;19.00;77.90;;;;;;6310504;22;20009;-82
2022/05/05 02:01:06;;;;;;;7.70;6.93;;;18.90;78.60;;;;;;6311566;22;20006;-82
2022/05/05 02:03:32;;;;;;;7.68;6.97;;;18.90;77.90;;;;;;6338169;22;20430;-82
2022/05/05 02:05:58;;;;;;;7.45;6.70;;;18.90;77.60;;;;;;6311062;22;20009;-82
2022/05/05 02:08:24;;;;;;;7.32;6.63;;;18.90;77.60;;;;;;6337771;22;20003;-81
2022/05/05 02:10:50;;;;;;;10.00;6.95;;;18.90;77.30;;;;;;6337663;22;20074;-84
2022/05/05 02:13:16;;;;;;;9.30;8.40;;;18.90;77.60;;;;;;6312479;22;20421;-83
2022/05/05 02:15:42;;;;;;;8.68;7.50;;;18.80;77.90;;;;;;6339987;22;20006;-83
2022/05/05 02:18:09;;;;;;;7.88;7.05;;;18.90;77.20;;;;;;6339277;22;20305;-83
2022/05/05 02:20:35;;;;;;;9.50;8.60;;;18.80;77.20;;;;;;6339162;22;20026;-83
2022/05/05 02:23:00;;;;;;;8.95;8.00;;;18.70;78.20;;;;;;6339847;22;19998;-83
2022/05/05 02:25:26;;;;;;;8.93;7.43;;;18.60;78.10;;;;;;6338818;22;20321;-83
2022/05/05 02:27:53;;;;;;;10.13;8.90;;;18.50;78.20;;;;;;6339023;22;20009;-83
2022/05/05 02:30:21;;;;;;;9.40;8.40;;;18.50;78.30;;;;;;6337254;22;20038;-83
2022/05/05 02:32:47;;;;;;;8.85;7.95;;;18.60;77.60;;;;;;6311900;22;20413;-82
2022/05/05 02:35:13;;;;;;;9.23;8.38;;;18.60;77.50;;;;;;6337445;22;20044;-83
2022/05/05 02:40:24;;;;;;;8.75;7.82;;;18.50;77.40;;;;;;6337744;22;20041;-82
2022/05/05 02:42:49;;;;;;;15.55;12.93;;;18.50;77.50;;;;;;6338364;22;20007;-82
2022/05/05 02:45:15;;;;;;;9.73;8.73;;;18.50;78.20;;;;;;6338930;22;19995;-83
2022/05/05 02:47:41;;;;;;;10.18;9.10;;;18.50;77.60;;;;;;6338733;22;20076;-83
2022/05/05 02:50:07;;;;;;;9.65;8.55;;;18.50;77.40;;;;;;6337841;22;20010;-83
2022/05/05 02:52:33;;;;;;;9.70;8.70;;;18.50;77.40;;;;;;6339037;22;20003;-83
2022/05/05 02:54:58;;;;;;;9.73;8.57;;;18.50;77.40;;;;;;6311046;22;20037;-82
2022/05/05 02:57:24;;;;;;;9.18;8.38;;;18.50;77.60;;;;;;6339030;22;20078;-83
2022/05/05 02:59:51;;;;;;;10.55;9.57;;;18.60;77.30;;;;;;6338800;22;20003;-83
2022/05/05 03:02:17;;;;;;;8.45;7.65;;;18.60;77.50;;;;;;6338774;22;20404;-84
2022/05/05 03:04:43;;;;;;;9.23;8.32;;;18.50;78.00;;;;;;6339172;22;19995;-83
2022/05/05 03:07:09;;;;;;;9.90;8.90;;;18.50;78.30;;;;;;6339736;22;20424;-85
2022/05/05 03:09:35;;;;;;;10.95;9.88;;;18.50;77.80;;;;;;6339695;22;20376;-84
2022/05/05 03:12:01;;;;;;;10.98;9.88;;;18.50;77.90;;;;;;6310935;22;20014;-84
2022/05/05 03:14:27;;;;;;;10.48;9.50;;;18.50;77.90;;;;;;6339135;22;20022;-83
2022/05/05 03:16:53;;;;;;;10.85;9.75;;;18.50;77.60;;;;;;6338654;22;20006;-84
2022/05/05 03:19:18;;;;;;;10.73;9.60;;;18.40;77.60;;;;;;6338477;22;20397;-82
2022/05/05 03:21:44;;;;;;;12.90;10.48;;;18.40;77.30;;;;;;6337660;22;20023;-83
2022/05/05 03:24:10;;;;;;;12.00;10.65;;;18.40;78.00;;;;;;6339287;22;20527;-83
2022/05/05 03:26:36;;;;;;;10.77;9.77;;;18.30;77.70;;;;;;6338950;22;20026;-83
2022/05/05 03:29:04;;;;;;;10.30;9.30;;;18.30;77.30;;;;;;6337933;22;20002;-83
2022/05/05 03:31:30;;;;;;;10.05;9.15;;;18.30;77.30;;;;;;6338319;22;20003;-83
2022/05/05 03:33:56;;;;;;;10.45;9.45;;;18.30;77.20;;;;;;6338549;22;20413;-83
2022/05/05 03:36:23;;;;;;;11.85;10.68;;;18.30;77.20;;;;;;6338920;22;20092;-82
2022/05/05 03:38:49;;;;;;;11.90;10.52;;;18.30;77.20;;;;;;6337500;22;19998;-82
2022/05/05 03:41:15;;;;;;;12.43;10.07;;;18.40;77.00;;;;;;6338958;22;20079;-82
2022/05/05 03:43:41;;;;;;;10.85;9.85;;;18.40;76.90;;;;;;6310345;22;20022;-82
2022/05/05 03:46:06;;;;;;;10.70;9.60;;;18.30;77.10;;;;;;6310847;22;20052;-83
2022/05/05 03:48:32;;;;;;;10.18;8.98;;;18.10;77.60;;;;;;6337602;22;19998;-83
2022/05/05 03:50:58;;;;;;;10.63;9.30;;;18.10;77.80;;;;;;6338941;22;19999;-85
2022/05/05 03:53:24;;;;;;;11.25;10.15;;;18.10;77.80;;;;;;6338640;22;20418;-84
2022/05/05 03:55:49;;;;;;;10.93;9.82;;;18.00;77.70;;;;;;6338144;22;20002;-83
2022/05/05 03:58:15;;;;;;;14.15;11.32;;;17.90;78.50;;;;;;6338100;22;20013;-86
2022/05/05 04:00:41;;;;;;;10.48;9.43;;;17.90;79.00;;;;;;6339277;22;20005;-86
2022/05/05 04:05:50;;;;;;;9.18;8.27;;;17.90;78.40;;;;;;6339662;22;20033;-85
2022/05/05 04:08:16;;;;;;;11.40;9.75;;;17.80;79.00;;;;;;6339377;22;20007;-85
2022/05/05 04:10:42;;;;;;;13.57;12.18;;;17.70;79.60;;;;;;6338707;22;20350;-85
2022/05/05 04:13:07;;;;;;;10.80;9.73;;;17.70;80.20;;;;;;6338622;22;20006;-86
2022/05/05 04:15:33;;;;;;;13.30;11.82;;;17.70;79.20;;;;;;6338623;22;20479;-85
2022/05/05 04:18:00;;;;;;;11.15;10.00;;;17.70;79.10;;;;;;6338298;22;20423;-84
2022/05/05 04:20:26;;;;;;;11.30;10.23;;;17.80;78.90;;;;;;6310058;22;20398;-84
2022/05/05 04:22:52;;;;;;;11.18;9.98;;;17.90;78.60;;;;;;6339374;22;20027;-84
2022/05/05 04:25:17;;;;;;;13.32;10.80;;;17.90;78.30;;;;;;6340932;22;20415;-83
2022/05/05 04:27:45;;;;;;;10.95;9.85;;;18.00;79.20;;;;;;6339997;22;20009;-82
2022/05/05 04:30:13;;;;;;;12.55;10.00;;;18.00;78.40;;;;;;6338947;22;19999;-82
2022/05/05 04:32:39;;;;;;;10.20;9.20;;;18.00;78.20;;;;;;6340774;22;20006;-83
2022/05/05 04:35:05;;;;;;;11.48;9.57;;;18.00;78.10;;;;;;6312572;22;20015;-83
2022/05/05 04:37:31;;;;;;;10.35;9.32;;;18.10;78.10;;;;;;6337330;22;19999;-84
2022/05/05 04:39:56;;;;;;;10.98;9.88;;;18.10;78.20;;;;;;6338899;22;20002;-84
2022/05/05 04:42:22;;;;;;;11.77;10.32;;;18.20;78.30;;;;;;6339373;22;20478;-83
2022/05/05 04:44:48;;;;;;;11.82;10.63;;;18.10;78.20;;;;;;6311978;22;20325;-81
2022/05/05 04:47:13;;;;;;;10.80;9.75;;;18.20;78.20;;;;;;6339071;22;19994;-79
2022/05/05 04:49:39;;;;;;;10.95;9.52;;;18.20;78.30;;;;;;6339606;22;19998;-79
2022/05/05 04:52:05;;;;;;;10.82;9.32;;;18.20;78.30;;;;;;6338746;22;20003;-79
2022/05/05 04:54:30;;;;;;;11.55;10.35;;;18.20;78.40;;;;;;6339110;22;20022;-79
2022/05/05 04:56:56;;;;;;;14.63;13.05;;;18.20;78.10;;;;;;6337707;22;20432;-79
2022/05/05 04:59:22;;;;;;;11.25;9.82;;;18.20;78.80;;;;;;6336382;22;20002;-79
2022/05/05 05:01:47;;;;;;;11.35;10.10;;;18.10;78.80;;;;;;6309805;22;19999;-78
2022/05/05 05:04:13;;;;;;;11.18;10.07;;;18.10;79.00;;;;;;6336868;22;20425;-72
2022/05/05 05:06:40;;;;;;;11.15;10.05;;;18.20;79.70;;;;;;6336343;22;20072;-78
2022/05/05 05:09:06;;;;;;;11.43;8.60;;;18.20;79.90;;;;;;6312069;22;20007;-79
2022/05/05 05:11:32;;;;;;;11.10;9.80;;;18.20;79.10;;;;;;6338161;22;20367;-80
2022/05/05 05:13:57;;;;;;;10.20;8.98;;;18.30;78.70;;;;;;6337424;22;20565;-83
2022/05/05 05:16:23;;;;;;;11.23;9.88;;;18.30;78.60;;;;;;6338161;22;20048;-73
2022/05/05 05:18:53;;;;;;;11.30;8.95;;;18.40;78.90;;;;;;6337170;22;20074;-72
2022/05/05 05:21:19;;;;;;;10.93;9.18;;;18.40;78.60;;;;;;6337905;22;20019;-73
2022/05/05 05:23:45;;;;;;;10.57;9.20;;;18.40;78.80;;;;;;6336343;22;20003;-74
2022/05/05 05:26:11;;;;;;;10.52;9.23;;;18.40;78.60;;;;;;6337452;22;20006;-75
2022/05/05 05:28:36;;;;;;;12.10;10.50;;;18.40;78.70;;;;;;6337812;22;19999;-76
2022/05/05 05:31:02;;;;;;;10.05;8.65;;;18.40;79.90;;;;;;6339115;22;20034;-74
2022/05/05 05:33:28;;;;;;;9.48;8.50;;;18.40;79.00;;;;;;6336914;22;20030;-72
2022/05/05 05:35:53;;;;;;;9.95;8.95;;;18.50;79.00;;;;;;6337905;22;20002;-72
2022/05/05 05:38:20;;;;;;;10.20;8.82;;;18.50;78.90;;;;;;6310230;22;20068;-71
2022/05/05 05:40:47;;;;;;;9.30;8.40;;;18.60;79.00;;;;;;6338446;22;20006;-74
2022/05/05 05:43:12;;;;;;;9.55;8.55;;;18.60;78.90;;;;;;6336569;22;19995;-71
2022/05/05 05:45:38;;;;;;;10.15;8.98;;;18.60;79.00;;;;;;6338338;22;20078;-77
2022/05/05 05:48:06;;;;;;;9.55;8.38;;;18.60;79.10;;;;;;6338519;22;20073;-81
2022/05/05 05:50:31;;;;;;;10.40;8.32;;;18.70;79.10;;;;;;6338764;22;20006;-78
2022/05/05 05:52:58;;;;;;;9.07;8.18;;;18.70;79.10;;;;;;6338049;22;20301;-78
2022/05/05 05:55:24;;;;;;;9.57;8.35;;;18.70;79.40;;;;;;6338198;22;20010;-78
2022/05/05 05:57:49;;;;;;;10.02;8.32;;;18.70;79.10;;;;;;6338721;22;20006;-78
2022/05/05 06:00:15;;;;;;;10.52;9.45;;;18.70;79.20;;;;;;6338878;22;19998;-78
2022/05/05 06:05:26;;;;;;;9.00;8.00;;;18.80;79.30;;;;;;6339316;22;20343;-78
2022/05/05 06:07:52;;;;;;;9.55;8.57;;;18.80;79.70;;;;;;6338861;22;20006;-78
2022/05/05 06:10:19;;;;;;;11.70;10.50;;;18.80;79.50;;;;;;6339470;22;20318;-78
2022/05/05 06:12:44;;;;;;;9.38;8.35;;;18.80;79.80;;;;;;6338786;22;19999;-78
2022/05/05 06:15:10;;;;;;;8.55;7.68;;;18.80;79.30;;;;;;6338425;22;20041;-78
2022/05/05 06:17:36;;;;;;;9.48;8.48;;;18.80;79.40;;;;;;6310324;22;20009;-78
2022/05/05 06:20:02;;;;;;;10.07;8.00;;;18.90;79.20;;;;;;6337820;22;19998;-79
2022/05/05 06:22:28;;;;;;;10.95;7.90;;;18.90;79.80;;;;;;6338643;22;20009;-78
2022/05/05 06:24:54;;;;;;;10.63;8.05;;;18.90;79.60;;;;;;6338730;22;20052;-73
2022/05/05 06:27:19;;;;;;;12.25;10.63;;;18.80;80.00;;;;;;6338094;22;20044;-73
2022/05/05 06:29:45;;;;;;;11.55;7.88;;;18.80;80.80;;;;;;6338407;22;20074;-73
2022/05/05 06:32:11;;;;;;;7.93;6.80;;;18.80;80.50;;;;;;6337982;22;19995;-73
2022/05/05 06:34:37;;;;;;;7.80;7.10;;;18.80;80.10;;;;;;6338379;22;20416;-73
2022/05/05 06:37:03;;;;;;;11.55;9.85;;;18.90;80.40;;;;;;6337472;22;20073;-79
2022/05/05 06:39:28;;;;;;;8.82;7.95;;;18.90;80.40;;;;;;6309878;22;20010;-72
2022/05/05 06:41:55;;;;;;;7.82;7.05;;;19.00;80.10;;;;;;6337933;22;19999;-72
2022/05/05 06:44:21;;;;;;;7.55;6.75;;;19.00;80.40;;;;;;6338907;22;19999;-72
2022/05/05 06:46:47;;;;;;;7.28;6.57;;;19.10;80.10;;;;;;6338689;22;20069;-72
2022/05/05 06:49:13;;;;;;;6.40;5.80;;;19.20;80.00;;;;;;6338834;22;20000;-73
2022/05/05 06:51:38;;;;;;;7.53;5.90;;;19.30;80.00;;;;;;6335547;22;20007;-72
2022/05/05 06:54:04;;;;;;;8.02;6.05;;;19.30;79.70;;;;;;6308961;22;20007;-72
2022/05/05 06:56:30;;;;;;;6.50;5.90;;;19.30;79.50;;;;;;6338707;22;20021;-72
2022/05/05 06:58:55;;;;;;;7.38;6.68;;;19.40;79.30;;;;;;6338101;22;19998;-73
2022/05/05 07:06:49;;;;;;;6.47;5.78;;;19.60;78.30;;;;;;6338323;22;20057;-73
2022/05/05 07:11:59;;;;;;;5.63;5.00;;;19.70;77.70;;;;;;6338840;22;20093;-70
2022/05/05 07:14:25;;;;;;;8.95;7.18;;;19.80;77.70;;;;;;6337758;22;20026;-71
2022/05/05 07:16:51;;;;;;;6.88;5.72;;;19.90;77.20;;;;;;6338157;22;20306;-70
2022/05/05 07:19:16;;;;;;;8.40;7.47;;;19.80;77.10;;;;;;6336722;22;19999;-71
2022/05/05 07:21:42;;;;;;;8.70;6.07;;;19.80;77.10;;;;;;6338759;22;20087;-71
2022/05/05 07:24:08;;;;;;;7.50;6.70;;;19.80;77.60;;;;;;6338376;22;19995;-70
2022/05/05 07:26:33;;;;;;;8.60;7.40;;;19.70;77.50;;;;;;6338496;22;20373;-70
2022/05/05 07:28:59;;;;;;;7.15;6.43;;;19.70;77.20;;;;;;6338247;22;20003;-71
2022/05/05 07:31:25;;;;;;;7.55;6.50;;;19.70;77.10;;;;;;6338651;22;20470;-71
2022/05/05 07:33:50;;;;;;;6.80;6.10;;;19.70;77.20;;;;;;6338449;22;20047;-70
2022/05/05 07:36:16;;;;;;;8.30;6.10;;;19.70;77.30;;;;;;6338781;22;20079;-71
2022/05/05 07:38:42;;;;;;;8.50;7.70;;;19.70;76.90;;;;;;6338134;22;20401;-70
2022/05/05 07:41:08;;;;;;;6.43;4.95;;;19.70;76.90;;;;;;6338128;22;20006;-72
2022/05/05 07:43:33;;;;;;;4.68;4.22;;;19.70;76.90;;;;;;6338229;22;20066;-72
2022/05/05 07:45:59;;;;;;;6.18;4.38;;;19.80;76.70;;;;;;6338299;22;20481;-73
2022/05/05 07:48:25;;;;;;;5.22;4.70;;;19.90;76.30;;;;;;6337803;22;19998;-73
2022/05/05 07:50:50;;;;;;;4.70;4.30;;;19.90;75.80;;;;;;6338396;22;20007;-72
2022/05/05 07:53:16;;;;;;;6.35;4.38;;;20.00;75.70;;;;;;6338733;22;20003;-70
2022/05/05 07:55:42;;;;;;;5.40;4.93;;;20.10;75.60;;;;;;6336716;22;20077;-71
2022/05/05 07:58:07;;;;;;;7.90;5.68;;;20.20;75.10;;;;;;6336999;22;20048;-73
2022/05/05 08:00:33;;;;;;;8.63;5.13;;;20.20;74.60;;;;;;6338972;22;20076;-72
2022/05/05 08:02:59;;;;;;;5.60;4.28;;;20.20;74.50;;;;;;6339745;22;20014;-72
2022/05/05 08:05:24;;;;;;;5.82;4.95;;;20.30;74.50;;;;;;6339723;22;20030;-73
2022/05/05 08:07:51;;;;;;;6.25;5.55;;;20.30;74.30;;;;;;6338419;22;20024;-73
2022/05/05 08:10:20;;;;;;;6.28;4.70;;;20.40;73.70;;;;;;6339197;22;20325;-73
2022/05/05 08:12:47;;;;;;;7.00;5.03;;;20.40;73.70;;;;;;6339449;22;20059;-73
2022/05/05 08:15:16;;;;;;;4.95;4.40;;;20.50;73.60;;;;;;6339814;22;20028;-73
2022/05/05 08:17:44;;;;;;;4.95;4.50;;;20.50;73.80;;;;;;6339244;22;20417;-73
2022/05/05 08:20:10;;;;;;;5.15;4.65;;;20.50;73.80;;;;;;6339589;22;20002;-73
2022/05/05 08:22:37;;;;;;;4.53;4.03;;;20.50;73.80;;;;;;6340274;22;20018;-73
2022/05/05 08:30:32;;;;;;;5.70;4.97;;;20.60;73.40;;;;;;6340264;22;20014;-74
2022/05/05 08:32:58;;;;;;;7.25;5.40;;;20.70;73.40;;;;;;6312880;22;20003;-73
2022/05/05 08:35:27;;;;;;;7.78;4.90;;;20.70;73.40;;;;;;6312543;22;20056;-74
2022/05/05 08:37:53;;;;;;;6.43;5.72;;;20.80;73.20;;;;;;6336101;22;20053;-73
2022/05/05 08:40:23;;;;;;;5.22;4.68;;;20.70;73.00;;;;;;6336668;22;20003;-74
2022/05/05 08:42:49;;;;;;;9.30;8.00;;;20.80;73.20;;;;;;6311018;22;20310;-77
2022/05/05 08:45:14;;;;;;;5.13;4.55;;;20.80;71.90;;;;;;6339648;22;20044;-78
2022/05/05 08:47:42;;;;;;;5.03;4.53;;;20.80;72.40;;;;;;6336704;22;20030;-78
2022/05/05 08:50:10;;;;;;;4.28;3.80;;;20.80;72.30;;;;;;6338105;22;20151;-78
2022/05/05 08:52:42;;;;;;;7.53;5.13;;;20.80;72.40;;;;;;6339249;22;19999;-78
2022/05/05 08:55:13;;;;;;;7.93;5.18;;;20.80;72.40;;;;;;6339017;22;20003;-78
2022/05/05 08:57:39;;;;;;;5.47;4.45;;;20.90;72.50;;;;;;6339989;22;20094;-79
2022/05/05 09:00:05;;;;;;;5.40;4.53;;;21.00;72.40;;;;;;6339503;22;20429;-78
2022/05/05 09:02:31;;;;;;;4.57;4.15;;;21.00;72.50;;;;;;6339592;22;20074;-74
2022/05/05 09:04:57;;;;;;;4.47;3.58;;;21.00;72.60;;;;;;6340197;22;20023;-74
2022/05/05 09:07:43;;;;;;;4.88;3.80;;;21.10;72.40;;;;;;6339939;22;20026;-74
2022/05/05 09:10:09;;;;;;;5.00;4.22;;;21.20;72.40;;;;;;6311950;22;20044;-73
2022/05/05 09:12:35;;;;;;;6.18;4.45;;;21.30;72.10;;;;;;6312598;22;20433;-72
2022/05/05 09:15:10;;;;;;;8.32;5.63;;;21.40;72.30;;;;;;6311775;22;20002;-72
2022/05/05 09:17:35;;;;;;;8.02;5.28;;;21.50;71.90;;;;;;6339526;22;20007;-72
2022/05/05 09:20:03;;;;;;;4.55;4.07;;;21.50;71.20;;;;;;6339706;22;20021;-73
2022/05/05 09:22:29;;;;;;;4.90;3.78;;;21.50;71.10;;;;;;6311896;22;20056;-73
2022/05/05 09:24:57;;;;;;;5.57;5.00;;;21.60;71.10;;;;;;6339475;22;20351;-73
2022/05/05 09:27:28;;;;;;;4.43;4.03;;;21.70;70.80;;;;;;6311887;22;20022;-73
2022/05/05 09:30:13;;;;;;;6.10;5.50;;;21.70;70.50;;;;;;6337050;22;19999;-73
2022/05/05 09:32:47;;;;;;;8.95;3.80;;;21.70;70.10;;;;;;6334011;22;20002;-74
2022/05/05 09:35:17;;;;;;;5.25;4.15;;;21.70;70.20;;;;;;6338265;22;20025;-73
2022/05/05 09:37:44;;;;;;;;;;;21.70;70.30;;;;;;6310523;22;20010;-73
2022/05/05 09:40:13;;;;;;;4.63;3.88;;;21.80;70.10;;;;;;6300702;22;20218;-73
2022/05/05 09:42:49;;;;;;;4.07;3.67;;;21.80;69.90;;;;;;6336326;22;20066;-73
2022/05/05 09:45:29;;;;;;;3.70;3.38;;;21.80;69.80;;;;;;6337234;22;20005;-73
2022/05/05 09:48:03;;;;;;;9.05;5.03;;;21.90;69.80;;;;;;6338492;22;20448;-73
2022/05/05 09:50:32;;;;;;;5.32;3.90;;;21.90;69.30;;;;;;6338492;22;20056;-73
2022/05/05 09:58:35;;;;;;;4.03;3.63;;;21.90;69.70;;;;;;6339169;22;20077;-72
2022/05/05 10:01:08;;;;;;;8.65;5.88;;;21.90;69.90;;;;;;6338470;22;20005;-73
2022/05/05 10:04:05;;;;;;;3.47;3.17;;;21.90;69.30;;;;;;6338915;22;20007;-73
2022/05/05 10:06:37;;;;;;;4.57;3.60;;;21.80;70.40;;;;;;6311425;22;20082;-73
2022/05/05 10:09:18;;;;;;;5.78;3.50;;;21.90;70.30;;;;;;6339030;22;19999;-73
2022/05/05 10:11:45;;;;;;;4.95;4.03;;;22.00;70.00;;;;;;6338858;22;19999;-73
2022/05/05 10:14:12;;;;;;;4.82;3.10;;;22.00;69.40;;;;;;6311911;22;20089;-73
2022/05/05 10:16:40;;;;;;;3.90;3.50;;;22.10;69.10;;;;;;6339161;22;20360;-73
2022/05/05 10:19:06;;;;;;;3.95;3.50;;;22.10;68.90;;;;;;6311447;22;20265;-73
2022/05/05 10:21:41;;;;;;;4.88;3.20;;;22.00;69.10;;;;;;6311300;22;20009;-73
2022/05/05 10:24:25;;;;;;;4.43;3.45;;;22.00;69.00;;;;;;6339373;22;19999;-73
2022/05/05 10:27:05;;;;;;;4.30;3.42;;;22.00;69.30;;;;;;6339318;22;20367;-73
2022/05/05 10:29:31;;;;;;;3.95;3.38;;;22.00;69.30;;;;;;6338869;22;20098;-73
2022/05/05 10:32:07;;;;;;;6.35;4.20;;;22.00;69.50;;;;;;6338840;22;20065;-72
2022/05/05 10:34:33;;;;;;;6.47;4.60;;;22.00;69.70;;;;;;6311037;22;20082;-73
2022/05/05 10:37:20;;;;;;;3.70;3.33;;;22.10;69.50;;;;;;6338823;22;19998;-73
2022/05/05 10:40:07;;;;;;;4.38;3.60;;;22.10;69.40;;;;;;6338869;22;20076;-73
2022/05/05 10:42:46;;;;;;;5.10;3.55;;;22.10;69.50;;;;;;6338735;22;20074;-73
2022/05/05 10:45:27;;;;;;;4.40;3.67;;;22.10;69.20;;;;;;6339160;22;20002;-73
2022/05/05 10:47:58;;;;;;;3.95;3.28;;;22.10;69.30;;;;;;6338983;22;20077;-73
2022/05/05 10:50:56;;;;;;;4.07;3.17;;;22.10;69.40;;;;;;6311120;22;20002;-73
2022/05/05 10:53:32;;;;;;;5.40;3.17;;;22.10;69.50;;;;;;6338579;22;20448;-73
2022/05/05 10:56:03;;;;;;;4.10;3.30;;;22.10;69.50;;;;;;6339112;22;20063;-73
2022/05/05 10:59:02;;;;;;;4.18;3.13;;;22.10;69.00;;;;;;6310974;22;20034;-72
2022/05/05 11:01:41;;;;;;;5.03;3.35;;;22.20;68.80;;;;;;6338614;22;20055;-73
2022/05/05 11:04:24;;;;;;;5.55;3.35;;;22.20;69.10;;;;;;6338359;22;20006;-73
2022/05/05 11:07:22;;;;;;;4.47;3.20;;;22.20;69.00;;;;;;6338513;22;20087;-73
2022/05/05 11:09:48;;;;;;;3.85;3.10;;;22.20;68.80;;;;;;6338388;22;20428;-73
2022/05/05 11:12:17;;;;;;;3.42;3.13;;;22.20;69.00;;;;;;6338127;22;19995;-73
2022/05/05 11:23:42;;;;;;;4.50;3.42;;;22.20;68.40;;;;;;6337677;22;20056;-72
2022/05/05 11:26:09;;;;;;;5.45;4.22;;;22.20;68.70;;;;;;6338619;22;19999;-73
2022/05/05 11:28:36;;;;;;;5.70;3.70;;;22.20;68.40;;;;;;6336922;22;19999;-78
2022/05/05 11:31:02;;;;;;;3.58;3.28;;;22.20;68.80;;;;;;6338184;22;20424;-79
2022/05/05 11:33:28;;;;;;;4.13;3.20;;;22.10;68.70;;;;;;6340536;22;20045;-79
2022/05/05 11:36:01;;;;;;;3.78;3.17;;;22.10;68.70;;;;;;6340682;22;20011;-78
2022/05/05 11:38:28;;;;;;;4.75;3.95;;;22.20;68.70;;;;;;6340304;22;20003;-78
2022/05/05 11:41:07;;;;;;;3.42;3.13;;;22.20;68.40;;;;;;6341047;22;20005;-78
2022/05/05 11:46:19;;;;;;;4.20;3.60;;;22.00;68.50;;;;;;6341113;22;20470;-78
2022/05/05 11:48:54;;;;;;;4.07;3.67;;;22.00;68.30;;;;;;6341112;22;20006;-79
2022/05/05 11:51:30;;;;;;;4.07;3.20;;;22.00;68.30;;;;;;6338064;22;20062;-78
2022/05/05 11:54:10;;;;;;;3.78;3.25;;;22.00;68.80;;;;;;6288038;22;20011;-78
2022/05/05 11:56:37;;;;;;;5.57;3.72;;;22.00;68.60;;;;;;6312776;22;20009;-78
2022/05/05 12:02:15;;;;;;;5.97;3.55;;;22.10;68.90;;;;;;6340410;22;20398;-78
2022/05/05 12:04:45;;;;;;;5.18;3.30;;;22.00;69.10;;;;;;6340376;22;20006;-78
2022/05/05 12:07:19;;;;;;;4.30;3.65;;;22.00;69.00;;;;;;6340263;22;20468;-77
2022/05/05 12:09:46;;;;;;;4.15;3.53;;;22.00;69.10;;;;;;6312850;22;20320;-78
2022/05/05 12:12:18;;;;;;;3.63;3.33;;;22.00;69.30;;;;;;6340194;22;20002;-78
2022/05/05 12:14:52;;;;;;;4.50;4.10;;;22.00;69.40;;;;;;6339865;22;20043;-79
2022/05/05 12:17:23;;;;;;;3.88;3.50;;;22.00;69.40;;;;;;6339786;22;20413;-78
2022/05/05 12:19:50;;;;;;;4.40;3.58;;;22.00;69.30;;;;;;6340267;22;20010;-79
2022/05/05 12:22:27;;;;;;;4.20;3.60;;;21.90;69.50;;;;;;6340616;22;19994;-78
2022/05/05 12:24:53;;;;;;;3.40;3.10;;;21.90;69.50;;;;;;6312806;22;19999;-78
2022/05/05 12:27:23;;;;;;;3.40;3.10;;;21.90;69.60;;;;;;6340249;22;20007;-77
2022/05/05 12:29:49;;;;;;;;;;;21.80;69.50;;;;;;6340907;22;20059;-77
2022/05/05 12:32:17;;;;;;;4.15;3.55;;;21.80;69.80;;;;;;6340272;22;20274;-78
2022/05/05 12:34:44;;;;;;;4.55;3.30;;;21.90;69.70;;;;;;6340414;22;20022;-77
2022/05/05 12:37:16;;;;;;;3.58;3.15;;;21.70;70.00;;;;;;6340179;22;20013;-77
2022/05/05 12:39:48;;;;;;;4.50;3.50;;;21.80;70.40;;;;;;6339918;22;20038;-77
2022/05/05 12:42:14;;;;;;;3.83;3.53;;;21.80;71.40;;;;;;6340324;22;19999;-78
2022/05/05 12:44:43;;;;;;;5.97;4.40;;;21.70;70.80;;;;;;6338991;22;20056;-78
2022/05/05 12:47:08;;;;;;;3.80;3.50;;;21.70;71.40;;;;;;6338844;22;20066;-77
2022/05/05 12:49:35;;;;;;;5.28;3.03;;;21.60;71.20;;;;;;6338980;22;20405;-77
2022/05/05 12:52:03;;;;;;;3.55;3.25;;;21.60;71.40;;;;;;6338905;22;20003;-77
2022/05/05 12:59:57;;;;;;;3.55;3.20;;;21.60;72.10;;;;;;6338870;22;20075;-78
2022/05/05 13:02:23;;;;;;;3.95;3.50;;;21.60;72.20;;;;;;6338115;22;20078;-77
2022/05/05 13:04:49;;;;;;;4.07;3.70;;;21.50;72.50;;;;;;6338586;22;20115;-78
2022/05/05 13:07:15;;;;;;;4.75;3.78;;;21.50;72.10;;;;;;6338353;22;19999;-77
2022/05/05 13:09:41;;;;;;;3.22;2.92;;;21.50;72.30;;;;;;6338216;22;20006;-78
2022/05/05 13:12:07;;;;;;;3.88;3.47;;;21.50;72.20;;;;;;6338553;22;20505;-78
2022/05/05 13:14:32;;;;;;;4.03;3.50;;;21.50;73.00;;;;;;6338840;22;20425;-78
2022/05/05 13:17:00;;;;;;;4.25;3.50;;;21.40;73.00;;;;;;6338384;22;20005;-78
2022/05/05 13:19:26;;;;;;;3.35;3.05;;;21.40;73.50;;;;;;6338374;22;20003;-78
2022/05/05 13:21:52;;;;;;;4.25;3.13;;;21.40;73.50;;;;;;6339987;22;20428;-78
2022/05/05 13:24:18;;;;;;;4.55;3.50;;;21.40;73.60;;;;;;6340026;22;19999;-78
2022/05/05 13:26:46;;;;;;;3.97;3.45;;;21.40;73.90;;;;;;6339982;22;19999;-78
2022/05/05 13:29:12;;;;;;;3.55;3.10;;;21.30;73.60;;;;;;6339086;22;20010;-72
2022/05/05 13:31:39;;;;;;;3.78;3.33;;;21.30;73.60;;;;;;6338714;22;20082;-73
2022/05/05 13:34:05;;;;;;;3.28;2.97;;;21.30;73.60;;;;;;6336073;22;20375;-73
2022/05/05 13:36:31;;;;;;;3.50;3.20;;;21.30;73.70;;;;;;6337020;22;20425;-73
2022/05/05 13:38:57;;;;;;;5.03;3.30;;;21.30;73.80;;;;;;6337249;22;20005;-73
2022/05/05 13:41:22;;;;;;;5.15;3.83;;;21.30;73.70;;;;;;6337645;22;19999;-73